createdAt,value
2018-05-27T00:00:46.106Z,57.00
2018-05-27T00:03:13.610Z,57.40
2018-05-27T00:05:41.144Z,57.10
2018-05-27T00:08:09.038Z,57.10
2018-05-27T00:10:36.576Z,57.60
2018-05-27T00:13:04.084Z,57.40
2018-05-27T00:15:32.368Z,57.80
2018-05-27T00:17:59.887Z,57.80
2018-05-27T00:20:27.384Z,58.10
2018-05-27T00:22:54.893Z,58.20
2018-05-27T00:25:22.392Z,58.00
2018-05-27T00:27:50.672Z,58.60
2018-05-27T00:30:23.453Z,58.90
2018-05-27T00:32:51.880Z,58.90
2018-05-27T00:35:19.967Z,58.90
2018-05-27T00:37:47.466Z,59.10
2018-05-27T00:40:14.969Z,59.20
2018-05-27T00:42:42.466Z,59.20
2018-05-27T00:45:10.857Z,59.20
2018-05-27T00:47:39.130Z,59.40
2018-05-27T00:50:08.943Z,59.70
2018-05-27T00:52:37.286Z,59.70
2018-05-27T00:55:04.835Z,59.70
2018-05-27T00:57:32.337Z,59.60
2018-05-27T01:00:00.653Z,59.70
2018-05-27T01:02:28.179Z,59.70
2018-05-27T01:04:56.462Z,60.50
2018-05-27T01:07:24.717Z,60.20
2018-05-27T01:09:52.214Z,60.20
2018-05-27T01:12:20.318Z,60.70
2018-05-27T01:14:48.905Z,60.60
2018-05-27T01:17:16.467Z,60.50
2018-05-27T01:19:43.973Z,60.50
2018-05-27T01:22:12.252Z,60.80
2018-05-27T01:24:40.530Z,61.00
2018-05-27T01:27:08.047Z,61.00
2018-05-27T01:29:35.541Z,61.00
2018-05-27T01:32:04.543Z,61.20
2018-05-27T01:34:32.050Z,61.20
2018-05-27T01:36:59.561Z,61.50
2018-05-27T01:39:30.889Z,61.60
2018-05-27T01:41:59.229Z,62.00
2018-05-27T01:44:26.788Z,62.00
2018-05-27T01:46:54.285Z,61.80
2018-05-27T01:49:21.819Z,62.00
2018-05-27T01:51:49.958Z,62.10
2018-05-27T01:54:17.484Z,62.00
2018-05-27T01:56:45.761Z,62.40
2018-05-27T01:59:14.042Z,62.40
2018-05-27T02:01:42.318Z,62.70
2018-05-27T02:04:10.594Z,62.80
2018-05-27T02:06:39.173Z,62.80
2018-05-27T02:24:40.674Z,66.20
2018-05-27T02:27:08.200Z,66.00
2018-05-27T02:29:35.710Z,65.60
2018-05-27T02:32:03.230Z,65.30
2018-05-27T02:34:30.837Z,65.90
2018-05-27T02:36:58.337Z,65.20
2018-05-27T02:39:26.623Z,65.40
2018-05-27T02:41:54.141Z,65.20
2018-05-27T02:44:21.646Z,65.80
2018-05-27T02:46:49.178Z,65.60
2018-05-27T02:49:16.685Z,65.50
2018-05-27T02:51:44.205Z,66.10
2018-05-27T03:04:01.744Z,66.10
2018-05-27T03:06:29.979Z,68.30
2018-05-27T03:08:58.257Z,67.90
2018-05-27T03:11:26.546Z,68.20
2018-05-27T03:13:54.049Z,68.20
2018-05-27T03:16:21.671Z,68.30
2018-05-27T03:18:49.960Z,68.30
2018-05-27T03:21:17.467Z,68.40
2018-05-27T03:23:45.686Z,68.70
2018-05-27T03:26:13.905Z,68.40
2018-05-27T03:28:41.458Z,68.50
2018-05-27T03:31:13.298Z,68.40
2018-05-27T03:33:40.806Z,68.40
2018-05-27T03:36:08.305Z,68.70
2018-05-27T03:38:37.651Z,68.70
2018-05-27T03:41:05.145Z,68.80
2018-05-27T03:43:33.411Z,69.00
2018-05-27T03:46:01.692Z,68.90
2018-05-27T03:48:30.201Z,69.30
2018-05-27T03:50:57.746Z,69.30
2018-05-27T03:53:25.266Z,69.10
2018-05-27T03:55:53.269Z,69.80
2018-05-27T03:58:21.543Z,69.80
2018-05-27T04:00:49.825Z,69.70
2018-05-27T04:03:17.329Z,69.60
2018-05-27T04:05:56.756Z,69.50
2018-05-27T04:08:33.996Z,69.90
2018-05-27T04:11:02.317Z,70.20
2018-05-27T04:13:29.820Z,70.20
2018-05-27T04:15:57.328Z,70.30
2018-05-27T04:18:24.849Z,70.40
2018-05-27T04:20:53.117Z,70.90
2018-05-27T04:23:21.118Z,70.90
2018-05-27T04:25:48.621Z,70.80
2018-05-27T04:28:16.122Z,71.00
2018-05-27T04:30:45.149Z,70.60
2018-05-27T04:33:12.650Z,70.60
2018-05-27T04:35:40.139Z,70.70
2018-05-27T04:38:07.653Z,70.80
2018-05-27T04:40:35.654Z,70.90
2018-05-27T04:43:03.953Z,70.70
2018-05-27T04:45:31.456Z,70.70
2018-05-27T04:47:58.967Z,70.50
2018-05-27T04:50:27.264Z,70.50
2018-05-27T04:52:54.772Z,70.70
2018-05-27T04:55:22.295Z,70.90
2018-05-27T04:57:49.794Z,70.80
2018-05-27T05:00:17.386Z,71.00
2018-05-27T05:02:44.886Z,71.20
2018-05-27T05:05:12.403Z,70.70
2018-05-27T05:07:39.901Z,70.20
2018-05-27T05:10:07.401Z,70.40
2018-05-27T05:12:36.285Z,70.60
2018-05-27T05:15:05.451Z,70.60
2018-05-27T05:17:32.997Z,70.50
2018-05-27T05:20:00.518Z,70.10
2018-05-27T05:22:28.059Z,70.10
2018-05-27T05:24:56.332Z,70.40
2018-05-27T05:27:23.850Z,70.30
2018-05-27T05:29:51.349Z,70.00
2018-05-27T05:32:18.869Z,69.20
2018-05-27T05:34:46.380Z,69.90
2018-05-27T05:37:14.678Z,69.50
2018-05-27T05:39:42.200Z,69.50
2018-05-27T05:42:09.713Z,69.90
2018-05-27T05:44:37.245Z,70.20
2018-05-27T05:47:05.546Z,69.60
2018-05-27T05:49:33.042Z,69.60
2018-05-27T05:52:00.573Z,69.60
2018-05-27T05:54:28.098Z,68.80
2018-05-27T05:56:56.368Z,68.10
2018-05-27T05:59:24.659Z,67.60
2018-05-27T06:01:52.170Z,67.60
2018-05-27T06:04:20.104Z,68.00
2018-05-27T06:06:47.603Z,68.40
2018-05-27T06:09:15.124Z,68.00
2018-05-27T06:11:42.642Z,67.60
2018-05-27T06:14:10.919Z,68.10
2018-05-27T06:16:39.203Z,67.40
2018-05-27T06:19:07.504Z,67.60
2018-05-27T06:21:35.025Z,67.50
2018-05-27T06:24:02.638Z,67.40
2018-05-27T06:26:30.172Z,66.70
2018-05-27T06:28:58.459Z,65.70
2018-05-27T06:31:25.974Z,66.40
2018-05-27T06:33:53.483Z,65.10
2018-05-27T06:36:21.003Z,64.90
2018-05-27T06:38:48.554Z,64.40
2018-05-27T06:41:16.022Z,64.20
2018-05-27T06:43:43.518Z,64.00
2018-05-27T06:46:11.043Z,63.40
2018-05-27T06:48:39.371Z,63.10
2018-05-27T06:51:06.881Z,63.10
2018-05-27T06:53:35.170Z,62.70
2018-05-27T06:56:03.455Z,63.20
2018-05-27T06:58:31.022Z,63.20
2018-05-27T07:01:02.389Z,62.40
2018-05-27T07:03:29.912Z,62.20
2018-05-27T07:05:58.177Z,61.90
2018-05-27T07:08:26.531Z,62.90
2018-05-27T07:10:54.035Z,62.20
2018-05-27T07:13:22.944Z,62.00
2018-05-27T07:15:50.438Z,62.00
2018-05-27T07:18:17.978Z,61.60
2018-05-27T07:20:45.493Z,60.40
2018-05-27T07:23:13.765Z,60.70
2018-05-27T07:25:42.065Z,61.00
2018-05-27T07:28:09.621Z,61.00
2018-05-27T07:30:37.104Z,61.20
2018-05-27T07:33:04.681Z,59.00
2018-05-27T07:35:32.205Z,59.50
2018-05-27T07:37:59.705Z,59.50
2018-05-27T07:40:27.235Z,59.80
2018-05-27T07:42:54.774Z,58.70
2018-05-27T07:45:22.282Z,59.20
2018-05-27T07:47:49.858Z,57.80
2018-05-27T07:50:17.365Z,57.00
2018-05-27T07:52:44.887Z,56.90
2018-05-27T07:55:12.399Z,56.80
2018-05-27T07:57:39.939Z,56.60
2018-05-27T08:00:07.450Z,56.20
2018-05-27T08:02:34.965Z,55.30
2018-05-27T08:05:02.490Z,55.40
2018-05-27T08:07:30.819Z,55.50
2018-05-27T08:09:58.378Z,55.50
2018-05-27T08:12:25.889Z,54.80
2018-05-27T08:14:53.497Z,55.60
2018-05-27T08:17:25.033Z,55.40
2018-05-27T08:19:52.665Z,54.60
2018-05-27T08:22:21.837Z,53.80
2018-05-27T08:24:50.487Z,53.80
2018-05-27T08:27:17.990Z,53.30
2018-05-27T08:29:45.540Z,52.20
2018-05-27T08:32:13.333Z,52.10
2018-05-27T08:34:41.625Z,52.70
2018-05-27T08:50:09.169Z,52.70
2018-05-27T08:52:37.473Z,50.20
2018-05-27T08:55:05.046Z,50.20
2018-05-27T08:57:32.584Z,51.10
2018-05-27T09:00:00.116Z,51.10
2018-05-27T09:02:28.425Z,50.10
2018-05-27T09:04:55.921Z,50.00
2018-05-27T09:07:23.862Z,49.00
2018-05-27T09:09:51.350Z,49.50
2018-05-27T09:12:19.003Z,48.00
2018-05-27T09:14:46.530Z,47.80
2018-05-27T09:17:14.077Z,46.80
2018-05-27T09:19:41.586Z,47.10
2018-05-27T09:22:09.097Z,46.60
2018-05-27T09:24:36.626Z,47.30
2018-05-27T09:27:04.149Z,47.00
2018-05-27T09:29:31.677Z,45.60
2018-05-27T09:31:59.183Z,45.90
2018-05-27T09:34:26.706Z,45.60
2018-05-27T09:36:54.245Z,44.40
2018-05-27T09:39:22.500Z,45.30
2018-05-27T09:41:50.062Z,45.30
2018-05-27T09:44:17.674Z,46.20
2018-05-27T09:46:45.210Z,44.60
2018-05-27T09:49:12.724Z,44.90
2018-05-27T09:51:40.228Z,44.20
2018-05-27T09:54:08.325Z,44.80
2018-05-27T09:56:35.844Z,43.60
2018-05-27T09:59:05.185Z,43.40
2018-05-27T10:01:32.716Z,43.40
2018-05-27T10:04:00.229Z,42.80
2018-05-27T10:06:27.760Z,42.70
2018-05-27T10:08:55.370Z,42.40
2018-05-27T10:11:22.861Z,41.70
2018-05-27T10:13:50.380Z,41.70
2018-05-27T10:16:17.877Z,41.80
2018-05-27T10:18:45.418Z,42.30
2018-05-27T10:21:14.207Z,42.00
2018-05-27T10:23:43.022Z,41.30
2018-05-27T10:26:10.846Z,41.20
2018-05-27T10:28:39.250Z,40.70
2018-05-27T10:31:07.558Z,40.50
2018-05-27T10:33:35.076Z,40.50
2018-05-27T10:36:05.958Z,40.60
2018-05-27T10:38:34.537Z,40.60
2018-05-27T10:41:06.635Z,41.90
2018-05-27T10:43:34.179Z,41.00
2018-05-27T10:59:06.798Z,40.10
2018-05-27T11:01:35.659Z,41.00
2018-05-27T11:04:03.826Z,41.00
2018-05-27T11:06:31.334Z,41.30
2018-05-27T11:08:58.842Z,41.60
2018-05-27T11:11:26.404Z,41.00
2018-05-27T11:13:56.095Z,39.40
2018-05-27T11:16:23.597Z,40.60
2018-05-27T11:18:51.159Z,40.00
2018-05-27T11:21:19.617Z,39.00
2018-05-27T11:23:47.130Z,39.00
2018-05-27T11:26:18.906Z,38.30
2018-05-27T11:28:46.442Z,38.70
2018-05-27T11:31:13.959Z,38.60
2018-05-27T11:33:42.190Z,37.70
2018-05-27T11:36:10.000Z,37.80
2018-05-27T11:38:37.497Z,38.00
2018-05-27T11:41:05.756Z,38.00
2018-05-27T11:43:34.081Z,38.70
2018-05-27T11:46:01.609Z,38.60
2018-05-27T11:48:34.136Z,38.30
2018-05-27T11:51:02.112Z,38.20
2018-05-27T11:53:30.438Z,38.30
2018-05-27T11:55:58.083Z,38.20
2018-05-27T11:58:26.357Z,36.70
2018-05-27T12:00:58.623Z,37.30
2018-05-27T12:03:27.108Z,38.90
2018-05-27T12:05:56.063Z,38.70
2018-05-27T12:08:23.610Z,38.60
2018-05-27T12:10:51.658Z,38.40
2018-05-27T12:13:20.215Z,38.80
2018-05-27T12:15:48.490Z,38.90
2018-05-27T12:18:16.132Z,38.80
2018-05-27T12:20:44.534Z,36.80
2018-05-27T12:23:17.225Z,38.00
2018-05-27T12:25:48.064Z,37.30
2018-05-27T12:28:16.682Z,37.30
2018-05-27T12:30:48.078Z,37.20
2018-05-27T12:33:16.872Z,38.20
2018-05-27T12:35:45.969Z,38.20
2018-05-27T12:38:18.289Z,38.30
2018-05-27T12:40:45.802Z,38.20
2018-05-27T12:43:14.172Z,37.30
2018-05-27T12:45:41.700Z,37.20
2018-05-27T12:48:09.204Z,37.50
2018-05-27T12:50:36.716Z,37.30
2018-05-27T12:53:04.253Z,37.80
2018-05-27T12:55:31.798Z,37.80
2018-05-27T12:57:59.422Z,37.70
2018-05-27T13:00:30.891Z,37.90
2018-05-27T13:02:59.337Z,38.00
2018-05-27T13:05:31.110Z,37.90
2018-05-27T13:07:58.645Z,38.00
2018-05-27T13:10:26.199Z,37.90
2018-05-27T13:12:54.325Z,38.10
2018-05-27T13:15:22.601Z,37.20
2018-05-27T13:17:50.980Z,36.70
2018-05-27T13:20:20.950Z,36.70
2018-05-27T13:22:49.035Z,36.80
2018-05-27T13:25:17.269Z,37.20
2018-05-27T13:27:45.613Z,37.10
2018-05-27T13:30:13.130Z,37.70
2018-05-27T13:32:40.646Z,37.60
2018-05-27T13:35:08.955Z,36.50
2018-05-27T13:37:40.747Z,36.50
2018-05-27T13:40:08.261Z,35.80
2018-05-27T13:42:35.771Z,37.00
2018-05-27T13:45:03.329Z,36.50
2018-05-27T13:47:31.642Z,36.70
2018-05-27T13:49:59.906Z,37.60
2018-05-27T13:52:28.218Z,36.50
2018-05-27T13:54:56.553Z,36.40
2018-05-27T13:57:24.071Z,37.00
2018-05-27T13:59:55.313Z,36.70
2018-05-27T14:02:26.777Z,37.40
2018-05-27T14:04:54.351Z,36.20
2018-05-27T14:07:21.855Z,37.20
2018-05-27T14:09:50.204Z,38.40
2018-05-27T14:12:23.309Z,38.30
2018-05-27T14:14:52.303Z,39.90
2018-05-27T14:17:20.569Z,38.40
2018-05-27T14:19:48.816Z,38.40
2018-05-27T14:22:17.289Z,37.70
2018-05-27T14:24:44.894Z,36.80
2018-05-27T14:27:13.115Z,37.40
2018-05-27T14:29:41.853Z,36.40
2018-05-27T14:32:09.349Z,36.90
2018-05-27T14:34:36.880Z,37.50
2018-05-27T14:37:05.174Z,37.20
2018-05-27T14:39:33.443Z,37.40
2018-05-27T14:42:01.722Z,37.70
2018-05-27T14:44:30.068Z,38.10
2018-05-27T14:46:57.579Z,38.00
2018-05-27T15:02:31.553Z,36.10
2018-05-27T15:04:59.822Z,36.20
2018-05-27T15:07:31.325Z,36.10
2018-05-27T15:09:58.978Z,37.30
2018-05-27T15:12:29.101Z,37.20
2018-05-27T15:14:56.630Z,38.40
2018-05-27T15:17:24.914Z,36.80
2018-05-27T15:19:52.510Z,36.80
2018-05-27T15:22:20.005Z,36.50
2018-05-27T15:24:47.578Z,36.50
2018-05-27T15:27:16.605Z,35.80
2018-05-27T15:29:48.074Z,35.80
2018-05-27T15:32:15.633Z,35.60
2018-05-27T15:34:43.127Z,36.60
2018-05-27T15:37:10.636Z,37.00
2018-05-27T15:39:38.162Z,37.40
2018-05-27T15:42:07.050Z,37.90
2018-05-27T15:44:35.353Z,38.40
2018-05-27T15:47:03.795Z,38.30
2018-05-27T15:49:31.304Z,37.80
2018-05-27T15:51:59.030Z,38.20
2018-05-27T15:54:27.753Z,40.40
2018-05-27T15:56:55.663Z,40.40
2018-05-27T15:59:27.343Z,40.90
2018-05-27T16:01:55.682Z,41.00
2018-05-27T16:04:23.307Z,41.00
2018-05-27T16:06:51.555Z,40.90
2018-05-27T16:09:20.219Z,40.40
2018-05-27T16:11:48.482Z,40.30
2018-05-27T16:14:19.781Z,40.60
2018-05-27T16:16:48.053Z,42.10
2018-05-27T16:19:16.675Z,42.80
2018-05-27T16:21:44.407Z,42.80
2018-05-27T16:24:12.024Z,43.40
2018-05-27T16:26:39.872Z,43.20
2018-05-27T16:29:08.018Z,42.40
2018-05-27T16:31:39.698Z,42.40
2018-05-27T16:34:07.221Z,40.60
2018-05-27T16:36:36.248Z,40.20
2018-05-27T16:39:03.757Z,40.10
2018-05-27T16:41:36.018Z,40.70
2018-05-27T16:44:03.530Z,41.30
2018-05-27T16:46:31.050Z,41.70
2018-05-27T16:48:58.578Z,41.70
2018-05-27T16:51:30.633Z,42.50
2018-05-27T16:53:58.153Z,42.50
2018-05-27T16:56:27.125Z,42.60
2018-05-27T16:58:55.973Z,42.50
2018-05-27T17:01:23.481Z,42.20
2018-05-27T17:03:51.794Z,42.80
2018-05-27T17:06:20.209Z,42.70
2018-05-27T17:08:47.842Z,42.70
2018-05-27T17:11:15.392Z,43.30
2018-05-27T17:13:43.379Z,43.30
2018-05-27T17:16:10.966Z,43.30
2018-05-27T17:18:38.938Z,43.60
2018-05-27T17:21:07.014Z,43.70
2018-05-27T17:23:35.357Z,44.60
2018-05-27T17:26:02.924Z,44.60
2018-05-27T17:28:30.434Z,45.00
2018-05-27T17:30:59.197Z,45.50
2018-05-27T17:33:26.722Z,45.50
2018-05-27T17:35:54.755Z,45.70
2018-05-27T17:38:22.270Z,45.80
2018-05-27T17:40:49.837Z,46.10
2018-05-27T17:43:17.402Z,45.90
2018-05-27T17:45:49.390Z,46.40
2018-05-27T17:48:16.895Z,46.70
2018-05-27T17:50:45.082Z,47.30
2018-05-27T17:53:12.587Z,47.70
2018-05-27T17:55:40.860Z,47.90
2018-05-27T17:58:13.864Z,48.20
2018-05-27T18:00:42.793Z,49.10
2018-05-27T18:03:11.323Z,49.10
2018-05-27T18:05:39.602Z,49.40
2018-05-27T18:08:07.906Z,49.60
2018-05-27T18:10:35.409Z,49.50
2018-05-27T18:13:03.268Z,49.70
2018-05-27T18:15:30.811Z,49.90
2018-05-27T18:17:58.342Z,50.20
2018-05-27T18:20:25.869Z,50.10
2018-05-27T18:22:57.563Z,50.30
2018-05-27T18:25:25.627Z,50.70
2018-05-27T18:27:54.106Z,50.30
2018-05-27T18:30:22.399Z,50.10
2018-05-27T18:32:49.913Z,50.10
2018-05-27T18:35:17.439Z,50.00
2018-05-27T18:37:44.944Z,49.10
2018-05-27T18:40:13.278Z,48.80
2018-05-27T18:42:41.876Z,48.80
2018-05-27T18:45:09.435Z,49.10
2018-05-27T18:47:36.932Z,48.80
2018-05-27T18:50:09.232Z,48.40
2018-05-27T18:52:36.759Z,48.40
2018-05-27T18:55:05.062Z,48.50
2018-05-27T18:57:32.690Z,48.50
2018-05-27T19:00:00.219Z,48.60
2018-05-27T19:02:27.764Z,49.10
2018-05-27T19:04:55.666Z,48.50
2018-05-27T19:07:23.196Z,49.20
2018-05-27T19:09:56.236Z,49.20
2018-05-27T19:12:28.798Z,48.90
2018-05-27T19:15:03.443Z,48.90
2018-05-27T19:17:31.758Z,49.20
2018-05-27T19:19:59.278Z,49.10
2018-05-27T19:22:33.216Z,49.70
2018-05-27T19:25:01.347Z,49.70
2018-05-27T19:27:28.878Z,50.40
2018-05-27T19:29:56.378Z,50.90
2018-05-27T19:32:24.659Z,51.50
2018-05-27T19:34:52.925Z,51.30
2018-05-27T19:37:25.120Z,51.30
2018-05-27T19:39:53.266Z,51.30
2018-05-27T19:42:22.053Z,50.80
2018-05-27T19:44:50.335Z,50.70
2018-05-27T19:47:22.186Z,50.90
2018-05-27T19:49:49.865Z,50.90
2018-05-27T19:52:18.146Z,51.00
2018-05-27T19:54:46.515Z,50.90
2018-05-27T19:57:14.037Z,50.90
2018-05-27T19:59:41.588Z,50.90
2018-05-27T20:02:09.198Z,50.90
2018-05-27T20:04:42.976Z,51.20
2018-05-27T20:07:10.531Z,50.50
2018-05-27T20:09:38.051Z,50.60
2018-05-27T20:12:06.333Z,50.80
2018-05-27T20:14:33.839Z,50.80
2018-05-27T20:17:02.075Z,50.90
2018-05-27T20:19:29.604Z,51.30
2018-05-27T20:21:58.842Z,51.80
2018-05-27T20:24:26.369Z,51.80
2018-05-27T20:26:53.890Z,51.60
2018-05-27T20:29:21.424Z,51.70
2018-05-27T20:31:49.721Z,52.90
2018-05-27T20:34:17.234Z,52.20
2018-05-27T20:36:44.746Z,52.70
2018-05-27T20:39:16.373Z,52.70
2018-05-27T20:41:43.905Z,52.40
2018-05-27T20:44:11.573Z,52.70
2018-05-27T20:46:39.095Z,52.40
2018-05-27T20:49:06.601Z,52.60
2018-05-27T20:51:34.137Z,52.50
2018-05-27T20:54:01.666Z,52.90
2018-05-27T20:56:29.179Z,53.00
2018-05-27T20:58:56.755Z,52.70
2018-05-27T21:01:24.313Z,52.50
2018-05-27T21:03:51.808Z,53.00
2018-05-27T21:06:22.985Z,52.90
2018-05-27T21:08:54.748Z,53.10
2018-05-27T21:11:22.711Z,53.10
2018-05-27T21:13:54.031Z,52.60
2018-05-27T21:16:23.005Z,53.20
2018-05-27T21:18:50.517Z,53.20
2018-05-27T21:21:18.049Z,53.30
2018-05-27T21:23:46.324Z,53.00
2018-05-27T21:26:14.596Z,52.40
2018-05-27T21:28:42.116Z,52.30
2018-05-27T21:31:09.649Z,52.30
2018-05-27T21:33:37.768Z,52.50
2018-05-27T21:36:09.569Z,52.50
2018-05-27T21:38:37.083Z,51.80
2018-05-27T21:41:05.862Z,52.00
2018-05-27T21:43:33.395Z,52.60
2018-05-27T21:46:00.908Z,52.60
2018-05-27T21:48:28.439Z,53.30
2018-05-27T21:50:56.549Z,54.40
2018-05-27T21:53:28.982Z,55.90
2018-05-27T21:55:56.562Z,56.00
2018-05-27T21:58:24.129Z,56.40
2018-05-27T22:00:51.655Z,56.50
2018-05-27T22:03:23.314Z,56.70
2018-05-27T22:05:51.006Z,56.90
2018-05-27T22:08:18.533Z,57.40
2018-05-27T22:10:46.033Z,57.30
2018-05-27T22:13:13.872Z,57.30
2018-05-27T22:15:41.390Z,57.30
2018-05-27T22:18:08.911Z,57.20
2018-05-27T22:20:40.367Z,57.50
2018-05-27T22:23:07.886Z,57.30
2018-05-27T22:25:36.134Z,56.30
2018-05-27T22:28:03.887Z,56.90
2018-05-27T22:40:19.414Z,58.60
2018-05-27T22:42:47.705Z,58.60
2018-05-27T22:45:16.006Z,58.70
2018-05-27T22:47:43.529Z,58.60
2018-05-27T22:50:12.441Z,58.70
2018-05-27T22:52:40.734Z,58.50
2018-05-27T22:55:12.628Z,58.40
2018-05-27T22:57:40.829Z,58.40
2018-05-27T23:00:12.043Z,59.50
2018-05-27T23:02:39.540Z,58.60
2018-05-27T23:05:07.059Z,58.40
2018-05-27T23:07:36.721Z,58.70
2018-05-27T23:10:09.710Z,59.20
2018-05-27T23:12:38.364Z,59.00
2018-05-27T23:15:10.334Z,59.00
2018-05-27T23:17:37.839Z,58.90
2018-05-27T23:20:05.345Z,58.90
2018-05-27T23:22:32.845Z,58.80
2018-05-27T23:25:00.916Z,58.30
2018-05-27T23:27:28.433Z,58.40
2018-05-27T23:29:55.993Z,58.20
2018-05-27T23:32:24.547Z,57.60
2018-05-27T23:34:55.897Z,57.40
2018-05-27T23:37:23.434Z,57.10
2018-05-27T23:39:50.963Z,57.40
2018-05-27T23:42:18.753Z,57.00
2018-05-27T23:44:50.472Z,57.20
2018-05-27T23:47:17.972Z,57.10
2018-05-27T23:49:50.345Z,57.20
2018-05-27T23:52:18.609Z,57.30
2018-05-27T23:54:46.340Z,57.40
2018-05-27T23:57:13.895Z,57.10
2018-05-27T23:59:42.265Z,57.50
